createdAt,value
2018-02-20T00:02:18.922Z,11.60
2018-02-20T00:04:46.442Z,11.50
2018-02-20T00:07:13.988Z,13.10
2018-02-20T00:09:41.509Z,11.52
2018-02-20T00:12:09.030Z,13.25
2018-02-20T00:14:37.336Z,13.50
2018-02-20T00:17:04.858Z,14.52
2018-02-20T00:19:32.398Z,13.10
2018-02-20T00:21:59.922Z,13.15
2018-02-20T00:24:27.475Z,14.27
2018-02-20T00:26:54.989Z,12.52
2018-02-20T00:29:22.525Z,11.25
2018-02-20T00:31:50.055Z,11.32
2018-02-20T00:34:17.598Z,14.05
2018-02-20T00:36:45.886Z,15.55
2018-02-20T00:39:14.194Z,14.05
2018-02-20T00:41:41.715Z,11.35
2018-02-20T00:44:10.022Z,10.25
2018-02-20T00:46:37.545Z,10.60
2018-02-20T00:49:05.831Z,11.93
2018-02-20T00:51:34.141Z,12.32
2018-02-20T00:54:01.663Z,13.20
2018-02-20T00:56:29.969Z,12.88
2018-02-20T00:58:57.493Z,13.10
2018-02-20T01:01:25.038Z,15.07
2018-02-20T01:03:52.563Z,15.32
2018-02-20T01:06:20.102Z,14.57
2018-02-20T01:08:48.388Z,14.52
2018-02-20T01:11:15.925Z,12.50
2018-02-20T01:13:44.215Z,13.57
2018-02-20T01:16:12.521Z,13.93
2018-02-20T01:18:40.042Z,14.10
2018-02-20T01:21:08.354Z,11.32
2018-02-20T01:23:35.922Z,10.18
2018-02-20T01:26:03.441Z,13.62
2018-02-20T01:28:31.743Z,12.55
2018-02-20T01:30:59.266Z,12.07
2018-02-20T01:33:26.834Z,12.35
2018-02-20T01:35:54.365Z,10.15
2018-02-20T01:38:21.904Z,10.45
2018-02-20T01:40:49.468Z,11.07
2018-02-20T01:43:17.020Z,10.68
2018-02-20T01:45:44.547Z,9.40
2018-02-20T01:48:12.862Z,10.38
2018-02-20T01:53:32.157Z,10.20
2018-02-20T01:55:59.681Z,10.40
2018-02-20T01:58:27.995Z,10.80
2018-02-20T02:00:55.513Z,10.20
2018-02-20T02:03:23.806Z,11.75
2018-02-20T02:05:51.345Z,12.90
2018-02-20T02:08:19.629Z,11.10
2018-02-20T02:10:47.940Z,10.50
2018-02-20T02:13:15.461Z,12.18
2018-02-20T02:15:43.218Z,10.57
2018-02-20T02:18:10.742Z,9.52
2018-02-20T02:20:38.287Z,10.27
2018-02-20T02:23:05.810Z,10.35
2018-02-20T02:25:34.130Z,13.68
2018-02-20T02:28:01.644Z,11.98
2018-02-20T02:30:29.933Z,11.63
2018-02-20T02:32:58.232Z,11.07
2018-02-20T02:35:25.754Z,11.57
2018-02-20T02:37:53.293Z,10.70
2018-02-20T02:40:20.809Z,9.45
2018-02-20T02:42:48.362Z,9.00
2018-02-20T02:45:16.654Z,10.45
2018-02-20T02:47:44.203Z,10.90
2018-02-20T02:50:12.485Z,9.85
2018-02-20T02:52:40.018Z,9.50
2018-02-20T02:55:07.571Z,8.38
2018-02-20T02:57:35.090Z,12.98
2018-02-20T03:00:02.640Z,9.10
2018-02-20T03:02:30.177Z,9.27
2018-02-20T03:04:58.489Z,10.38
2018-02-20T03:07:26.010Z,8.15
2018-02-20T03:09:54.317Z,9.13
2018-02-20T03:12:21.833Z,10.90
2018-02-20T03:14:49.374Z,9.70
2018-02-20T03:17:16.890Z,11.88
2018-02-20T03:19:44.424Z,9.98
2018-02-20T03:22:11.960Z,9.52
2018-02-20T03:24:39.482Z,10.43
2018-02-20T03:27:07.024Z,9.60
2018-02-20T03:29:35.305Z,11.05
2018-02-20T03:32:03.608Z,11.55
2018-02-20T03:34:31.138Z,9.73
2018-02-20T03:36:59.437Z,9.02
2018-02-20T03:39:26.957Z,8.35
2018-02-20T03:41:54.487Z,9.60
2018-02-20T03:44:22.003Z,11.45
2018-02-20T03:46:49.545Z,12.02
2018-02-20T03:49:17.854Z,11.07
2018-02-20T03:51:45.377Z,13.38
2018-02-20T03:54:12.921Z,13.75
2018-02-20T03:56:40.447Z,14.32
2018-02-20T03:59:07.998Z,13.00
2018-02-20T04:01:35.521Z,12.52
2018-02-20T04:04:03.065Z,10.45
2018-02-20T04:06:30.585Z,10.35
2018-02-20T04:08:58.125Z,11.60
2018-02-20T04:11:25.641Z,11.38
2018-02-20T04:13:53.181Z,11.43
2018-02-20T04:16:20.706Z,12.95
2018-02-20T04:18:48.242Z,9.88
2018-02-20T04:21:16.533Z,12.70
2018-02-20T04:23:44.838Z,11.10
2018-02-20T04:26:12.357Z,10.30
2018-02-20T04:28:40.664Z,10.20
2018-02-20T04:31:08.180Z,9.60
2018-02-20T04:33:35.728Z,10.20
2018-02-20T04:36:03.250Z,11.12
2018-02-20T04:38:30.772Z,11.32
2018-02-20T04:40:58.309Z,13.48
2018-02-20T04:43:25.829Z,10.93
2018-02-20T04:45:53.365Z,9.50
2018-02-20T04:48:21.649Z,10.15
2018-02-20T04:50:50.058Z,11.45
2018-02-20T04:53:17.625Z,11.80
2018-02-20T04:55:45.163Z,9.45
2018-02-20T04:58:12.681Z,9.45
2018-02-20T05:00:40.311Z,9.13
2018-02-20T05:03:07.829Z,11.75
2018-02-20T05:05:36.146Z,12.63
2018-02-20T05:08:03.672Z,10.00
2018-02-20T05:10:31.978Z,11.48
2018-02-20T05:12:59.544Z,10.00
2018-02-20T05:15:27.090Z,14.55
2018-02-20T05:17:54.606Z,13.55
2018-02-20T05:20:22.141Z,18.27
2018-02-20T05:22:49.684Z,14.75
2018-02-20T05:25:17.241Z,14.93
2018-02-20T05:27:44.777Z,14.20
2018-02-20T05:30:13.057Z,15.30
2018-02-20T05:32:41.368Z,12.77
2018-02-20T05:35:08.921Z,15.13
2018-02-20T05:37:36.461Z,13.52
2018-02-20T05:40:04.050Z,15.63
2018-02-20T05:42:31.592Z,13.27
2018-02-20T05:44:59.108Z,10.73
2018-02-20T05:47:26.645Z,15.15
2018-02-20T05:49:54.166Z,13.60
2018-02-20T05:52:21.750Z,12.40
2018-02-20T05:54:49.269Z,11.85
2018-02-20T05:57:17.589Z,11.95
2018-02-20T05:59:45.130Z,10.50
2018-02-20T06:02:12.654Z,11.20
2018-02-20T06:04:40.271Z,11.35
2018-02-20T06:07:07.833Z,11.05
2018-02-20T06:09:35.450Z,11.12
2018-02-20T06:12:02.962Z,10.95
2018-02-20T06:14:30.521Z,12.70
2018-02-20T06:16:58.072Z,11.68
2018-02-20T06:19:25.637Z,10.63
2018-02-20T06:21:53.202Z,10.80
2018-02-20T06:24:20.859Z,11.60
2018-02-20T06:26:48.377Z,15.93
2018-02-20T06:29:16.686Z,13.55
2018-02-20T06:31:44.210Z,12.85
2018-02-20T06:34:11.824Z,12.13
2018-02-20T06:36:39.347Z,9.73
2018-02-20T06:39:07.650Z,12.93
2018-02-20T06:41:35.164Z,16.20
2018-02-20T06:44:02.705Z,18.10
2018-02-20T06:46:30.235Z,16.17
2018-02-20T06:48:57.773Z,17.67
2018-02-20T06:51:26.079Z,16.58
2018-02-20T06:53:53.595Z,15.00
2018-02-20T06:56:21.902Z,14.13
2018-02-20T06:58:49.422Z,16.08
2018-02-20T07:01:17.726Z,15.65
2018-02-20T07:03:46.013Z,17.02
2018-02-20T07:06:13.549Z,14.32
2018-02-20T07:08:41.871Z,14.60
2018-02-20T07:11:09.416Z,12.25
2018-02-20T07:13:36.932Z,18.48
2018-02-20T07:16:04.555Z,11.93
2018-02-20T07:18:32.078Z,13.15
2018-02-20T07:21:00.390Z,15.02
2018-02-20T07:23:27.953Z,14.87
2018-02-20T07:25:55.498Z,15.40
2018-02-20T07:28:23.073Z,17.95
2018-02-20T07:30:50.617Z,12.00
2018-02-20T07:33:18.143Z,13.15
2018-02-20T07:35:45.686Z,13.05
2018-02-20T07:38:13.209Z,13.20
2018-02-20T07:40:40.728Z,13.93
2018-02-20T07:43:08.270Z,11.50
2018-02-20T07:45:35.796Z,14.35
2018-02-20T07:48:03.341Z,14.57
2018-02-20T07:50:31.636Z,12.45
2018-02-20T07:52:59.177Z,15.57
2018-02-20T07:55:27.466Z,17.35
2018-02-20T07:57:55.044Z,18.67
2018-02-20T08:00:22.576Z,21.67
2018-02-20T08:02:50.885Z,21.65
2018-02-20T08:05:18.410Z,22.60
2018-02-20T08:07:46.723Z,20.58
2018-02-20T08:10:14.242Z,21.25
2018-02-20T08:12:42.551Z,20.25
2018-02-20T08:15:10.074Z,19.87
2018-02-20T08:17:37.623Z,18.73
2018-02-20T08:20:05.138Z,23.30
2018-02-20T08:22:32.674Z,25.60
2018-02-20T08:25:00.958Z,29.12
2018-02-20T08:27:29.367Z,39.33
2018-02-20T08:29:56.884Z,42.20
2018-02-20T08:32:25.164Z,40.97
2018-02-20T08:34:53.467Z,35.05
2018-02-20T08:37:20.995Z,38.13
2018-02-20T08:39:48.540Z,48.03
2018-02-20T08:42:16.072Z,49.30
2018-02-20T08:44:43.614Z,42.10
2018-02-20T08:47:11.139Z,33.55
2018-02-20T08:49:38.756Z,23.83
2018-02-20T08:52:06.287Z,20.37
2018-02-20T08:54:33.879Z,19.37
2018-02-20T08:57:01.410Z,21.40
2018-02-20T08:59:29.021Z,19.57
2018-02-20T09:01:56.557Z,20.50
2018-02-20T09:04:24.115Z,20.73
2018-02-20T09:06:51.682Z,19.43
2018-02-20T09:09:19.246Z,22.33
2018-02-20T09:11:46.809Z,20.80
2018-02-20T09:14:14.365Z,21.37
2018-02-20T09:16:41.906Z,18.80
2018-02-20T09:19:10.210Z,19.77
2018-02-20T09:21:37.752Z,18.87
2018-02-20T09:24:05.329Z,18.80
2018-02-20T09:26:32.893Z,17.93
2018-02-20T09:29:00.410Z,18.50
2018-02-20T09:31:28.719Z,18.57
2018-02-20T09:33:56.295Z,18.73
2018-02-20T09:36:23.833Z,20.20
2018-02-20T09:38:52.112Z,18.87
2018-02-20T09:41:20.413Z,19.37
2018-02-20T09:43:47.982Z,19.60
2018-02-20T09:46:15.537Z,18.63
2018-02-20T09:48:43.069Z,19.20
2018-02-20T09:51:10.593Z,21.43
2018-02-20T09:53:39.652Z,21.40
2018-02-20T09:56:07.169Z,19.70
2018-02-20T09:58:34.703Z,20.30
2018-02-20T10:01:02.222Z,19.60
2018-02-20T10:03:29.761Z,21.07
2018-02-20T10:05:58.046Z,21.87
2018-02-20T10:08:25.584Z,19.43
2018-02-20T10:10:53.156Z,21.03
2018-02-20T10:13:20.667Z,20.67
2018-02-20T10:15:48.187Z,20.00
2018-02-20T10:18:16.502Z,21.70
2018-02-20T10:20:44.140Z,20.90
2018-02-20T10:23:11.677Z,23.00
2018-02-20T10:25:39.957Z,22.80
2018-02-20T10:28:08.275Z,22.90
2018-02-20T10:30:35.797Z,22.70
2018-02-20T10:33:04.114Z,23.63
2018-02-20T10:35:31.630Z,22.90
2018-02-20T10:37:59.933Z,22.40
2018-02-20T10:40:27.470Z,22.07
2018-02-20T10:42:55.793Z,24.17
2018-02-20T10:45:23.320Z,21.60
2018-02-20T10:47:50.835Z,21.93
2018-02-20T10:50:18.474Z,21.27
2018-02-20T10:52:45.995Z,22.53
2018-02-20T10:55:14.305Z,22.03
2018-02-20T10:57:41.821Z,22.07
2018-02-20T11:00:11.815Z,19.37
2018-02-20T11:02:39.339Z,19.97
2018-02-20T11:05:06.921Z,23.20
2018-02-20T11:07:34.442Z,22.00
2018-02-20T11:10:02.759Z,20.07
2018-02-20T11:12:30.273Z,22.10
2018-02-20T11:14:57.880Z,22.63
2018-02-20T11:17:25.401Z,21.30
2018-02-20T11:19:53.709Z,19.67
2018-02-20T11:22:21.281Z,18.60
2018-02-20T11:24:48.822Z,22.73
2018-02-20T11:27:16.346Z,21.70
2018-02-20T11:29:43.962Z,21.20
2018-02-20T11:32:11.533Z,22.87
2018-02-20T11:34:39.083Z,21.10
2018-02-20T11:37:06.598Z,19.83
2018-02-20T11:39:34.117Z,20.07
2018-02-20T11:42:01.649Z,20.77
2018-02-20T11:44:29.168Z,23.23
2018-02-20T11:46:56.713Z,20.57
2018-02-20T11:49:24.234Z,21.30
2018-02-20T11:51:51.783Z,23.47
2018-02-20T11:54:20.068Z,24.27
2018-02-20T11:56:48.374Z,21.97
2018-02-20T11:59:15.894Z,21.67
2018-02-20T12:01:44.210Z,22.80
2018-02-20T12:04:11.733Z,22.23
2018-02-20T12:06:40.056Z,22.60
2018-02-20T12:09:07.578Z,24.97
2018-02-20T12:11:35.894Z,23.73
2018-02-20T12:14:03.465Z,23.63
2018-02-20T12:16:31.021Z,22.85
2018-02-20T12:18:58.558Z,24.07
2018-02-20T12:21:26.084Z,22.27
2018-02-20T12:23:53.626Z,24.27
2018-02-20T12:26:21.154Z,24.12
2018-02-20T12:28:48.718Z,23.25
2018-02-20T12:31:16.240Z,23.62
2018-02-20T12:33:44.562Z,25.00
2018-02-20T12:36:12.088Z,23.15
2018-02-20T12:38:40.502Z,24.70
2018-02-20T12:41:08.069Z,23.38
2018-02-20T12:43:35.614Z,23.77
2018-02-20T12:46:03.189Z,23.20
2018-02-20T12:48:30.728Z,22.52
2018-02-20T12:50:58.250Z,24.58
2018-02-20T12:53:25.876Z,24.27
2018-02-20T12:55:53.405Z,23.05
2018-02-20T12:58:21.690Z,22.50
2018-02-20T13:00:49.229Z,23.27
2018-02-20T13:03:16.840Z,24.65
2018-02-20T13:05:44.399Z,22.10
2018-02-20T13:08:11.912Z,24.20
2018-02-20T13:10:39.523Z,22.77
2018-02-20T13:13:07.062Z,20.70
2018-02-20T13:15:35.367Z,21.37
2018-02-20T13:18:02.893Z,22.10
2018-02-20T13:20:31.197Z,23.67
2018-02-20T13:22:58.713Z,22.30
2018-02-20T13:25:26.336Z,24.50
2018-02-20T13:27:53.854Z,23.02
2018-02-20T13:30:22.269Z,24.37
2018-02-20T13:32:49.792Z,23.17
2018-02-20T13:35:18.070Z,24.80
2018-02-20T13:37:46.374Z,24.60
2018-02-20T13:40:13.949Z,24.00
2018-02-20T13:42:41.490Z,24.42
2018-02-20T13:45:09.075Z,23.42
2018-02-20T13:47:36.637Z,22.90
2018-02-20T13:50:04.155Z,24.02
2018-02-20T13:52:32.479Z,24.20
2018-02-20T13:55:00.012Z,23.33
2018-02-20T13:57:27.602Z,21.12
2018-02-20T13:59:55.169Z,23.25
2018-02-20T14:02:22.711Z,22.40
2018-02-20T14:04:50.236Z,21.10
2018-02-20T14:07:17.774Z,24.58
2018-02-20T14:09:45.408Z,24.55
2018-02-20T14:12:12.946Z,24.27
2018-02-20T14:14:40.469Z,21.27
2018-02-20T14:17:08.023Z,22.50
2018-02-20T14:19:35.549Z,22.45
2018-02-20T14:22:03.123Z,23.95
2018-02-20T14:24:30.666Z,21.80
2018-02-20T14:26:58.237Z,22.27
2018-02-20T14:29:25.797Z,21.08
2018-02-20T14:31:53.361Z,21.17
2018-02-20T14:34:20.902Z,20.58
2018-02-20T14:36:48.424Z,21.08
2018-02-20T14:39:15.961Z,23.75
2018-02-20T14:41:43.486Z,21.70
2018-02-20T14:44:11.062Z,20.40
2018-02-20T14:46:38.587Z,21.37
2018-02-20T14:49:06.894Z,20.20
2018-02-20T14:51:34.470Z,22.05
2018-02-20T14:54:02.028Z,23.77
2018-02-20T14:56:29.593Z,21.87
2018-02-20T14:58:57.130Z,22.92
2018-02-20T15:01:24.653Z,23.38
2018-02-20T15:03:52.205Z,21.35
2018-02-20T15:06:19.841Z,23.12
2018-02-20T15:08:47.399Z,23.85
2018-02-20T15:11:14.950Z,22.13
2018-02-20T15:13:42.474Z,22.65
2018-02-20T15:16:10.782Z,21.33
2018-02-20T15:18:38.310Z,21.58
2018-02-20T15:21:05.845Z,21.35
2018-02-20T15:23:33.382Z,22.55
2018-02-20T15:26:00.922Z,22.10
2018-02-20T15:28:28.441Z,22.83
2018-02-20T15:30:55.981Z,21.33
2018-02-20T15:33:23.502Z,21.58
2018-02-20T15:35:51.042Z,21.60
2018-02-20T15:38:19.361Z,22.85
2018-02-20T15:40:46.898Z,22.48
2018-02-20T15:43:14.492Z,22.80
2018-02-20T15:45:42.033Z,20.00
2018-02-20T15:48:09.549Z,22.60
2018-02-20T15:50:37.092Z,22.67
2018-02-20T15:53:04.613Z,20.70
2018-02-20T15:55:32.190Z,19.62
2018-02-20T15:57:59.709Z,20.95
2018-02-20T16:00:28.010Z,22.35
2018-02-20T16:02:55.589Z,21.35
2018-02-20T16:05:23.130Z,22.23
2018-02-20T16:07:50.646Z,22.40
2018-02-20T16:10:18.167Z,23.30
2018-02-20T16:12:45.705Z,22.10
2018-02-20T16:15:13.989Z,22.13
2018-02-20T16:17:41.528Z,21.60
2018-02-20T16:20:09.050Z,22.48
2018-02-20T16:22:36.590Z,22.70
2018-02-20T16:25:04.106Z,23.02
2018-02-20T16:27:31.645Z,21.87
2018-02-20T16:29:59.166Z,23.60
2018-02-20T16:32:26.710Z,22.85
2018-02-20T16:34:55.023Z,19.92
2018-02-20T16:37:22.558Z,24.40
2018-02-20T16:39:50.868Z,23.87
2018-02-20T16:42:18.414Z,20.58
2018-02-20T16:44:45.951Z,25.52
2018-02-20T16:49:48.176Z,25.88
2018-02-20T16:52:15.691Z,23.35
2018-02-20T16:54:43.994Z,26.60
2018-02-20T16:57:11.510Z,27.83
2018-02-20T16:59:39.062Z,25.05
2018-02-20T17:02:06.580Z,27.95
2018-02-20T17:04:34.113Z,28.20
2018-02-20T17:07:01.634Z,28.87
2018-02-20T17:09:29.277Z,28.80
2018-02-20T17:11:56.796Z,27.60
2018-02-20T17:14:25.118Z,25.65
2018-02-20T17:16:52.682Z,30.37
2018-02-20T17:19:20.222Z,30.37
2018-02-20T17:21:47.798Z,30.25
2018-02-20T17:24:15.332Z,28.98
2018-02-20T17:26:43.609Z,29.60
2018-02-20T17:29:11.912Z,28.33
2018-02-20T17:31:39.465Z,29.95
2018-02-20T17:34:06.998Z,31.10
2018-02-20T17:36:35.281Z,28.62
2018-02-20T17:39:03.631Z,30.25
2018-02-20T17:41:31.127Z,31.77
2018-02-20T17:43:58.657Z,29.00
2018-02-20T17:46:26.171Z,30.98
2018-02-20T17:48:53.708Z,30.08
2018-02-20T17:51:21.229Z,31.42
2018-02-20T17:53:48.746Z,30.83
2018-02-20T17:56:16.306Z,30.12
2018-02-20T17:58:43.832Z,31.73
2018-02-20T18:01:12.141Z,31.45
2018-02-20T18:03:39.705Z,33.10
2018-02-20T18:06:07.242Z,29.77
2018-02-20T18:08:34.768Z,31.20
2018-02-20T18:11:02.308Z,34.03
2018-02-20T18:13:29.829Z,31.52
2018-02-20T18:15:57.405Z,34.03
2018-02-20T18:18:24.970Z,34.55
2018-02-20T18:20:52.513Z,33.08
2018-02-20T18:23:20.029Z,31.33
2018-02-20T18:25:47.546Z,31.25
2018-02-20T18:28:15.529Z,33.70
2018-02-20T18:30:43.050Z,37.50
2018-02-20T18:33:11.349Z,33.50
2018-02-20T18:35:38.906Z,37.80
2018-02-20T18:38:06.471Z,36.60
2018-02-20T18:40:34.035Z,36.53
2018-02-20T18:43:01.569Z,38.30
2018-02-20T18:45:29.855Z,38.08
2018-02-20T18:47:57.389Z,37.13
2018-02-20T18:50:24.897Z,37.42
2018-02-20T18:52:52.436Z,38.42
2018-02-20T18:55:19.949Z,38.10
2018-02-20T18:57:47.490Z,37.65
2018-02-20T19:00:15.010Z,43.00
2018-02-20T19:02:42.697Z,42.13
2018-02-20T19:05:10.259Z,39.83
2018-02-20T19:07:37.815Z,40.47
2018-02-20T19:10:05.336Z,37.45
2018-02-20T19:12:34.017Z,39.05
2018-02-20T19:15:01.935Z,40.42
2018-02-20T19:17:31.130Z,36.55
2018-02-20T19:19:59.305Z,40.80
2018-02-20T19:22:27.238Z,37.42
2018-02-20T19:24:55.359Z,39.85
2018-02-20T19:27:22.884Z,40.08
2018-02-20T19:29:50.422Z,36.50
2018-02-20T19:32:18.718Z,38.35
2018-02-20T19:34:47.022Z,38.75
2018-02-20T19:37:14.538Z,35.45
2018-02-20T19:39:42.841Z,39.45
2018-02-20T19:42:10.369Z,36.63
2018-02-20T19:44:37.908Z,40.55
2018-02-20T19:47:05.437Z,38.33
2018-02-20T19:49:32.977Z,39.33
2018-02-20T19:52:00.562Z,37.20
2018-02-20T19:54:28.112Z,41.22
2018-02-20T19:56:55.649Z,36.38
2018-02-20T19:59:23.965Z,37.97
2018-02-20T20:01:51.518Z,41.53
2018-02-20T20:04:19.076Z,36.63
2018-02-20T20:06:46.640Z,36.15
2018-02-20T20:09:14.198Z,35.72
2018-02-20T20:11:41.734Z,34.38
2018-02-20T20:14:09.258Z,38.25
2018-02-20T20:16:36.802Z,34.53
2018-02-20T20:19:04.355Z,34.65
2018-02-20T20:21:32.035Z,35.83
2018-02-20T20:23:59.562Z,35.45
2018-02-20T20:26:27.101Z,38.00
2018-02-20T20:28:54.627Z,36.53
2018-02-20T20:31:22.166Z,36.00
2018-02-20T20:33:49.698Z,35.47
2018-02-20T20:36:17.238Z,34.00
2018-02-20T20:38:44.764Z,35.25
2018-02-20T20:41:12.385Z,33.85
2018-02-20T20:43:39.922Z,34.30
2018-02-20T20:46:07.462Z,32.45
2018-02-20T20:48:35.753Z,35.45
2018-02-20T20:51:03.850Z,32.90
2018-02-20T20:53:31.369Z,35.30
2018-02-20T20:55:59.677Z,33.35
2018-02-20T20:58:27.204Z,35.05
2018-02-20T21:00:55.509Z,36.75
2018-02-20T21:03:23.029Z,33.50
2018-02-20T21:05:50.574Z,32.97
2018-02-20T21:08:18.093Z,34.60
2018-02-20T21:10:45.637Z,35.90
2018-02-20T21:13:13.226Z,34.53
2018-02-20T21:15:40.746Z,33.95
2018-02-20T21:18:09.052Z,36.60
2018-02-20T21:20:36.578Z,36.40
2018-02-20T21:23:04.898Z,34.20
2018-02-20T21:25:32.417Z,33.55
2018-02-20T21:28:00.738Z,33.85
2018-02-20T21:30:28.294Z,32.80
2018-02-20T21:32:55.847Z,36.05
2018-02-20T21:35:23.522Z,33.90
2018-02-20T21:37:51.067Z,34.70
2018-02-20T21:40:18.594Z,34.45
2018-02-20T21:42:46.925Z,32.38
2018-02-20T21:45:14.453Z,33.95
2018-02-20T21:47:42.043Z,34.33
2018-02-20T21:50:09.569Z,35.95
2018-02-20T21:52:37.886Z,35.47
2018-02-20T21:55:05.412Z,35.70
2018-02-20T21:57:32.962Z,36.97
2018-02-20T22:00:01.250Z,33.75
2018-02-20T22:02:28.798Z,37.70
2018-02-20T22:04:57.110Z,32.15
2018-02-20T22:07:24.657Z,35.88
2018-02-20T22:09:52.182Z,34.60
2018-02-20T22:12:19.708Z,34.22
2018-02-20T22:14:47.251Z,31.83
2018-02-20T22:17:14.777Z,32.45
2018-02-20T22:19:42.325Z,33.05
2018-02-20T22:22:10.651Z,32.42
2018-02-20T22:24:38.197Z,33.30
2018-02-20T22:27:05.769Z,32.88
2018-02-20T22:29:33.404Z,33.92
2018-02-20T22:32:00.925Z,32.70
2018-02-20T22:34:28.550Z,35.20
2018-02-20T22:36:56.079Z,33.92
2018-02-20T22:39:24.389Z,31.60
2018-02-20T22:41:51.910Z,34.47
2018-02-20T22:44:20.213Z,32.53
2018-02-20T22:46:47.741Z,34.70
2018-02-20T22:49:16.066Z,35.42
2018-02-20T22:51:43.608Z,32.50
2018-02-20T22:54:11.134Z,33.05
2018-02-20T22:56:38.682Z,37.10
2018-02-20T22:59:06.312Z,35.05
2018-02-20T23:01:33.854Z,35.90
2018-02-20T23:04:01.373Z,37.38
2018-02-20T23:06:28.918Z,36.53
2018-02-20T23:08:56.547Z,34.85
2018-02-20T23:11:36.056Z,37.78
2018-02-20T23:14:04.391Z,33.63
2018-02-20T23:16:31.935Z,32.65
2018-02-20T23:18:59.453Z,37.97
2018-02-20T23:21:27.763Z,37.33
2018-02-20T23:23:55.282Z,35.55
2018-02-20T23:26:23.600Z,33.70
2018-02-20T23:28:51.161Z,34.63
2018-02-20T23:31:18.705Z,36.28
2018-02-20T23:33:46.229Z,36.05
2018-02-20T23:36:13.745Z,34.38
2018-02-20T23:38:41.310Z,30.98
2018-02-20T23:41:08.866Z,31.37
2018-02-20T23:43:36.390Z,35.92
2018-02-20T23:46:03.914Z,30.83
2018-02-20T23:48:31.456Z,35.45
2018-02-20T23:51:04.593Z,34.47
2018-02-20T23:53:32.210Z,34.60
2018-02-20T23:55:59.744Z,32.30
2018-02-20T23:58:27.429Z,31.83
